createdAt,value
2022-10-02T00:01:50.047Z,98716.72
2022-10-02T00:05:00.050Z,98721.55
2022-10-02T00:07:52.809Z,98724.07
2022-10-02T00:11:08.003Z,98723.94
2022-10-02T00:14:03.130Z,98717.65
2022-10-02T00:16:56.901Z,98724.67
2022-10-02T00:19:44.750Z,98723.15
2022-10-02T00:23:10.672Z,98721.52
2022-10-02T00:26:14.951Z,98730.89
2022-10-02T00:29:35.181Z,98731.02
2022-10-02T00:32:35.944Z,98730.39
2022-10-02T00:35:55.031Z,98723.22
2022-10-02T00:39:04.958Z,98728.76
2022-10-02T00:42:47.215Z,98725.63
2022-10-02T00:46:10.407Z,98728.66
2022-10-02T00:49:17.110Z,98730.34
2022-10-02T00:52:42.450Z,98730.90
2022-10-02T00:55:39.637Z,98731.48
2022-10-02T00:58:49.036Z,98734.52
2022-10-02T01:01:41.559Z,98734.87
2022-10-02T01:04:34.438Z,98735.30
2022-10-02T01:07:22.570Z,98732.48
2022-10-02T01:10:13.949Z,98733.55
2022-10-02T01:13:01.931Z,98731.86
2022-10-02T01:15:59.441Z,98730.13
2022-10-02T01:18:50.569Z,98733.07
2022-10-02T01:21:49.327Z,98732.90
2022-10-02T01:24:57.582Z,98737.83
2022-10-02T01:27:46.075Z,98739.29
2022-10-02T01:30:38.848Z,98740.68
2022-10-02T01:33:26.942Z,98744.14
2022-10-02T01:36:16.445Z,98744.08
2022-10-02T01:39:05.280Z,98747.38
2022-10-02T01:41:55.649Z,98751.00
2022-10-02T01:44:45.002Z,98751.64
2022-10-02T01:47:53.973Z,98755.70
2022-10-02T01:51:29.504Z,98751.88
2022-10-02T01:54:56.555Z,98754.16
2022-10-02T01:58:04.486Z,98750.65
2022-10-02T02:01:23.373Z,98756.67
2022-10-02T02:04:25.158Z,98752.51
2022-10-02T02:08:01.385Z,98757.48
2022-10-02T02:11:15.750Z,98754.25
2022-10-02T02:14:20.700Z,98758.20
2022-10-02T02:17:34.618Z,98764.48
2022-10-02T02:20:36.482Z,98768.80
2022-10-02T02:23:32.623Z,98771.56
2022-10-02T02:26:20.771Z,98773.05
2022-10-02T02:29:09.873Z,98776.58
2022-10-02T02:32:00.371Z,98773.44
2022-10-02T02:35:05.275Z,98772.86
2022-10-02T02:37:58.687Z,98771.09
2022-10-02T02:40:47.518Z,98766.23
2022-10-02T02:44:13.164Z,98765.36
2022-10-02T02:47:20.040Z,98767.77
2022-10-02T02:50:16.508Z,98773.52
2022-10-02T02:53:26.873Z,98773.27
2022-10-02T02:56:19.515Z,98778.99
2022-10-02T02:59:15.042Z,98778.38
2022-10-02T03:02:03.033Z,98781.81
2022-10-02T03:04:51.056Z,98785.26
2022-10-02T03:07:38.942Z,98786.57
2022-10-02T03:10:58.283Z,98790.46
2022-10-02T03:15:02.543Z,98791.22
2022-10-02T03:18:16.566Z,98797.41
2022-10-02T03:21:43.151Z,98799.99
2022-10-02T03:24:44.814Z,98804.61
2022-10-02T03:27:37.463Z,98798.59
2022-10-02T03:30:26.859Z,98804.38
2022-10-02T03:33:17.421Z,98800.67
2022-10-02T03:36:06.003Z,98800.00
2022-10-02T03:39:24.753Z,98803.27
2022-10-02T03:42:07.070Z,98803.60
2022-10-02T03:44:55.091Z,98799.02
2022-10-02T03:47:43.052Z,98800.62
2022-10-02T03:50:35.562Z,98802.02
2022-10-02T03:53:30.819Z,98803.48
2022-10-02T03:56:44.701Z,98801.98
2022-10-02T03:59:40.306Z,98803.08
2022-10-02T04:03:14.607Z,98810.25
2022-10-02T04:06:29.019Z,98803.66
2022-10-02T04:09:37.516Z,98808.13
2022-10-02T04:12:34.964Z,98811.70
2022-10-02T04:15:53.758Z,98809.88
2022-10-02T04:18:59.180Z,98805.55
2022-10-02T04:22:00.942Z,98802.72
2022-10-02T04:24:57.093Z,98805.02
2022-10-02T04:28:17.638Z,98806.09
2022-10-02T04:31:12.843Z,98817.32
2022-10-02T04:34:03.504Z,98815.12
2022-10-02T04:37:18.206Z,98815.20
2022-10-02T04:40:37.351Z,98822.55
2022-10-02T04:44:14.920Z,98821.64
2022-10-02T04:47:30.006Z,98826.20
2022-10-02T04:50:32.343Z,98833.48
2022-10-02T04:53:51.350Z,98831.80
2022-10-02T04:57:00.696Z,98830.78
2022-10-02T05:00:03.927Z,98830.30
2022-10-02T05:03:32.113Z,98837.00
2022-10-02T05:07:07.799Z,98841.92
2022-10-02T05:10:04.910Z,98842.97
2022-10-02T05:13:17.009Z,98848.52
2022-10-02T05:16:35.224Z,98845.62
2022-10-02T05:19:29.344Z,98851.06
2022-10-02T05:23:10.880Z,98850.73
2022-10-02T05:26:36.441Z,98853.68
2022-10-02T05:30:08.674Z,98858.33
2022-10-02T05:33:15.060Z,98856.03
2022-10-02T05:36:47.647Z,98858.04
2022-10-02T05:39:48.375Z,98860.00
2022-10-02T05:42:45.475Z,98861.15
2022-10-02T05:45:50.303Z,98865.32
2022-10-02T05:49:00.783Z,98866.18
2022-10-02T05:52:04.426Z,98871.80
2022-10-02T05:55:07.923Z,98875.99
2022-10-02T05:58:21.216Z,98876.14
2022-10-02T06:01:29.022Z,98882.13
2022-10-02T06:04:36.241Z,98885.65
2022-10-02T06:07:28.312Z,98883.90
2022-10-02T06:10:29.524Z,98879.30
2022-10-02T06:13:31.306Z,98888.46
2022-10-02T06:16:42.284Z,98887.76
2022-10-02T06:19:44.065Z,98885.59
2022-10-02T06:23:26.939Z,98886.08
2022-10-02T06:26:48.463Z,98885.36
2022-10-02T06:30:06.740Z,98886.85
2022-10-02T06:33:33.436Z,98891.64
2022-10-02T06:37:03.155Z,98884.55
2022-10-02T06:40:31.282Z,98880.42
2022-10-02T06:43:37.774Z,98885.77
2022-10-02T06:47:15.266Z,98887.15
2022-10-02T06:50:44.579Z,98885.13
2022-10-02T06:54:12.217Z,98881.27
2022-10-02T06:57:20.893Z,98883.05
2022-10-02T07:00:18.289Z,98890.92
2022-10-02T07:03:49.588Z,98894.81
2022-10-02T07:07:21.706Z,98902.90
2022-10-02T07:10:43.456Z,98909.42
2022-10-02T07:13:59.537Z,98912.77
2022-10-02T07:17:14.634Z,98915.67
2022-10-02T07:20:36.452Z,98918.66
2022-10-02T07:24:02.620Z,98916.40
2022-10-02T07:27:12.439Z,98911.39
2022-10-02T07:30:16.916Z,98910.12
2022-10-02T07:33:45.657Z,98915.30
2022-10-02T07:36:43.217Z,98921.98
2022-10-02T07:40:06.567Z,98921.42
2022-10-02T07:43:41.613Z,98916.92
2022-10-02T07:46:40.181Z,98917.98
2022-10-02T07:50:05.700Z,98919.86
2022-10-02T07:53:18.950Z,98926.78
2022-10-02T07:56:20.230Z,98930.91
2022-10-02T07:59:16.777Z,98931.50
2022-10-02T08:02:25.179Z,98936.73
2022-10-02T08:05:28.737Z,98933.04
2022-10-02T08:08:47.924Z,98939.45
2022-10-02T08:11:54.980Z,98940.70
2022-10-02T08:14:47.016Z,98947.94
2022-10-02T08:17:51.285Z,98952.65
2022-10-02T08:20:44.154Z,98958.65
2022-10-02T08:23:55.622Z,98953.84
2022-10-02T08:27:06.293Z,98957.32
2022-10-02T08:30:06.680Z,98959.70
2022-10-02T08:32:55.202Z,98960.46
2022-10-02T08:35:59.292Z,98964.28
2022-10-02T08:39:23.456Z,98966.23
2022-10-02T08:42:55.130Z,98971.42
2022-10-02T08:46:10.963Z,98970.24
2022-10-02T08:49:32.084Z,98968.79
2022-10-02T08:53:13.872Z,98961.81
2022-10-02T08:56:20.297Z,98964.50
2022-10-02T08:59:45.805Z,98960.42
2022-10-02T09:03:26.403Z,98951.81
2022-10-02T09:06:51.551Z,98944.14
2022-10-02T09:10:22.879Z,98937.03
2022-10-02T09:13:34.243Z,98929.44
2022-10-02T09:17:02.721Z,98933.91
2022-10-02T09:20:34.131Z,98931.48
2022-10-02T09:23:52.950Z,98935.50
2022-10-02T09:27:08.365Z,98926.72
2022-10-02T09:30:24.291Z,98928.80
2022-10-02T09:33:39.539Z,98938.26
2022-10-02T09:37:17.397Z,98940.88
2022-10-02T09:40:27.054Z,98941.74
2022-10-02T09:43:39.827Z,98949.41
2022-10-02T09:47:21.773Z,98957.08
2022-10-02T09:50:35.628Z,98957.90
2022-10-02T09:53:57.084Z,98956.92
2022-10-02T09:57:04.237Z,98955.15
2022-10-02T10:00:18.642Z,98948.31
2022-10-02T10:04:08.708Z,98947.52
2022-10-02T10:07:18.900Z,98945.00
2022-10-02T10:10:34.130Z,98953.10
2022-10-02T10:13:27.510Z,98955.64
2022-10-02T10:16:46.388Z,98960.27
2022-10-02T10:20:03.761Z,98956.13
2022-10-02T10:23:16.845Z,98961.83
2022-10-02T10:26:16.448Z,98960.08
2022-10-02T10:29:38.300Z,98960.79
2022-10-02T10:33:03.234Z,98960.61
2022-10-02T10:36:51.313Z,98960.64
2022-10-02T10:39:56.152Z,98964.92
2022-10-02T10:43:27.190Z,98967.10
2022-10-02T10:46:52.124Z,98976.34
2022-10-02T10:50:17.526Z,98979.69
2022-10-02T10:53:29.931Z,98977.98
2022-10-02T10:56:50.634Z,98987.98
2022-10-02T11:00:10.334Z,98986.23
2022-10-02T11:03:28.200Z,98997.70
2022-10-02T11:06:31.160Z,98996.73
2022-10-02T11:10:07.937Z,98999.86
2022-10-02T11:13:13.743Z,99005.21
2022-10-02T11:16:13.405Z,98997.95
2022-10-02T11:19:28.215Z,99002.75
2022-10-02T11:22:58.179Z,99005.48
2022-10-02T11:26:01.681Z,99008.61
2022-10-02T11:29:41.792Z,99010.45
2022-10-02T11:33:04.035Z,99016.52
2022-10-02T11:36:22.935Z,99011.70
2022-10-02T11:39:44.693Z,99016.25
2022-10-02T11:42:56.332Z,99012.73
2022-10-02T11:46:06.560Z,99017.80
2022-10-02T11:49:26.491Z,99017.63
2022-10-02T11:52:27.354Z,99014.10
2022-10-02T11:55:37.972Z,99014.08
2022-10-02T11:59:10.341Z,99019.98
2022-10-02T12:02:25.758Z,99016.33
2022-10-02T12:05:45.034Z,99019.88
2022-10-02T12:08:57.018Z,99020.61
2022-10-02T12:12:14.951Z,99019.23
2022-10-02T12:15:15.428Z,99019.98
2022-10-02T12:18:45.383Z,99012.09
2022-10-02T12:22:18.894Z,99011.70
2022-10-02T12:25:38.268Z,99012.58
2022-10-02T12:28:46.163Z,99009.44
2022-10-02T12:31:59.705Z,99009.19
2022-10-02T12:35:18.035Z,99009.68
2022-10-02T12:38:45.030Z,99004.23
2022-10-02T12:42:24.194Z,98995.98
2022-10-02T12:45:58.994Z,99003.37
2022-10-02T12:49:27.952Z,98996.06
2022-10-02T12:53:10.708Z,98992.98
2022-10-02T12:57:07.876Z,98999.89
2022-10-02T13:00:07.424Z,99002.79
2022-10-02T13:03:47.173Z,99003.70
2022-10-02T13:07:26.333Z,98998.98
2022-10-02T13:10:58.820Z,99000.88
2022-10-02T13:14:28.021Z,98995.59
2022-10-02T13:18:23.289Z,98995.16
2022-10-02T13:21:45.962Z,98995.98
2022-10-02T13:25:13.919Z,99005.20
2022-10-02T13:28:29.546Z,99004.08
2022-10-02T13:31:55.727Z,99010.11
2022-10-02T13:35:16.802Z,99026.52
2022-10-02T13:38:31.816Z,99028.30
2022-10-02T13:41:45.286Z,99033.71
2022-10-02T13:45:14.480Z,99031.97
2022-10-02T13:48:39.218Z,99029.70
2022-10-02T13:51:51.537Z,99028.50
2022-10-02T13:55:13.320Z,99032.97
2022-10-02T13:58:26.241Z,99032.92
2022-10-02T14:01:43.672Z,99022.54
2022-10-02T14:04:50.088Z,99025.77
2022-10-02T14:08:01.730Z,99022.42
2022-10-02T14:11:25.059Z,99020.13
2022-10-02T14:15:24.546Z,99015.67
2022-10-02T14:18:35.497Z,99016.58
2022-10-02T14:21:48.352Z,99017.00
2022-10-02T14:25:11.281Z,99004.56
2022-10-02T14:28:40.320Z,99002.45
2022-10-02T14:32:03.911Z,98995.27
2022-10-02T14:35:09.656Z,98996.73
2022-10-02T14:38:46.431Z,98998.88
2022-10-02T14:42:04.515Z,98987.98
2022-10-02T14:45:21.967Z,98990.88
2022-10-02T14:48:38.828Z,98988.67
2022-10-02T14:52:17.899Z,98984.96
2022-10-02T14:55:40.108Z,98987.29
2022-10-02T14:58:45.600Z,98987.38
2022-10-02T15:01:54.201Z,98993.47
2022-10-02T15:05:33.930Z,98990.46
2022-10-02T15:08:39.996Z,98991.13
2022-10-02T15:11:37.076Z,98991.42
2022-10-02T15:14:52.801Z,98990.71
2022-10-02T15:18:21.247Z,98990.96
2022-10-02T15:21:48.988Z,98994.39
2022-10-02T15:24:55.668Z,98998.72
2022-10-02T15:28:24.546Z,99005.31
2022-10-02T15:31:26.564Z,99005.30
2022-10-02T15:34:52.875Z,99002.96
2022-10-02T15:37:42.488Z,99002.10
2022-10-02T15:42:01.171Z,99001.19
2022-10-02T15:45:17.452Z,99001.27
2022-10-02T15:48:30.522Z,99004.14
2022-10-02T15:51:58.149Z,99001.85
2022-10-02T15:54:54.845Z,99001.17
2022-10-02T15:58:04.625Z,99003.36
2022-10-02T16:01:01.179Z,98999.97
2022-10-02T16:04:21.626Z,99001.55
2022-10-02T16:08:10.661Z,99001.56
2022-10-02T16:11:39.982Z,98999.23
2022-10-02T16:14:40.167Z,99000.80
2022-10-02T16:17:58.964Z,98999.89
2022-10-02T16:21:13.024Z,99002.75
2022-10-02T16:24:40.192Z,99002.61
2022-10-02T16:28:00.392Z,99002.04
2022-10-02T16:30:52.876Z,99006.79
2022-10-02T16:33:50.158Z,99006.73
2022-10-02T16:36:52.373Z,99005.34
2022-10-02T16:40:21.494Z,99013.24
2022-10-02T16:43:45.628Z,99009.29
2022-10-02T16:47:10.563Z,99005.23
2022-10-02T16:50:24.991Z,99001.00
2022-10-02T16:53:27.077Z,99001.39
2022-10-02T16:56:42.081Z,99004.80
2022-10-02T17:00:16.849Z,99003.92
2022-10-02T17:03:31.908Z,99007.48
2022-10-02T17:06:50.000Z,99005.01
2022-10-02T17:09:48.379Z,99004.00
2022-10-02T17:12:52.899Z,99007.64
2022-10-02T17:15:49.949Z,99011.47
2022-10-02T17:18:59.220Z,99017.23
2022-10-02T17:22:09.235Z,99015.33
2022-10-02T17:25:25.003Z,99018.86
2022-10-02T17:28:31.454Z,99020.09
2022-10-02T17:31:35.984Z,99023.19
2022-10-02T17:34:46.911Z,99023.08
2022-10-02T17:38:25.262Z,99016.48
2022-10-02T17:41:44.119Z,99018.12
2022-10-02T17:45:08.415Z,99021.91
2022-10-02T17:48:24.381Z,99023.96
2022-10-02T17:51:54.611Z,99023.12
2022-10-02T17:55:46.397Z,99018.34
2022-10-02T17:59:04.245Z,99013.96
2022-10-02T18:01:59.358Z,99014.39
2022-10-02T18:05:13.319Z,99011.53
2022-10-02T18:08:12.901Z,99014.01
2022-10-02T18:11:30.264Z,99013.70
2022-10-02T18:14:39.515Z,99011.98
2022-10-02T18:18:02.729Z,99011.25
2022-10-02T18:21:35.213Z,99010.48
2022-10-02T18:24:52.189Z,99008.77
2022-10-02T18:28:02.233Z,99007.89
2022-10-02T18:31:28.778Z,99004.06
2022-10-02T18:34:41.439Z,99011.05
2022-10-02T18:37:57.633Z,99009.91
2022-10-02T18:41:12.716Z,99009.18
2022-10-02T18:44:26.515Z,99016.53
2022-10-02T18:47:49.751Z,99012.64
2022-10-02T18:51:18.982Z,99007.02
2022-10-02T18:54:25.006Z,99012.73
2022-10-02T18:57:34.037Z,99013.60
2022-10-02T19:00:26.457Z,99017.17
2022-10-02T19:03:50.886Z,99018.28
2022-10-02T19:07:24.972Z,99010.16
2022-10-02T19:10:29.793Z,99007.73
2022-10-02T19:13:30.106Z,99011.66
2022-10-02T19:16:25.930Z,99011.53
2022-10-02T19:19:48.435Z,99009.41
2022-10-02T19:22:38.682Z,99011.33
2022-10-02T19:25:29.153Z,99006.83
2022-10-02T19:28:26.120Z,99007.84
2022-10-02T19:31:22.916Z,99004.52
2022-10-02T19:34:25.914Z,99001.60
2022-10-02T19:37:18.631Z,99000.05
2022-10-02T19:40:17.116Z,98999.92
2022-10-02T19:43:56.219Z,98997.88
2022-10-02T19:46:51.494Z,98996.58
2022-10-02T19:49:43.589Z,98995.88
2022-10-02T19:52:57.948Z,98992.92
2022-10-02T19:56:04.158Z,98994.61
2022-10-02T19:59:09.690Z,98995.52
2022-10-02T20:02:03.610Z,98995.73
2022-10-02T20:05:11.996Z,98991.59
2022-10-02T20:08:07.317Z,98992.80
2022-10-02T20:11:21.785Z,98989.33
2022-10-02T20:14:39.912Z,98990.14
2022-10-02T20:17:31.492Z,98994.20
2022-10-02T20:20:20.873Z,98982.55
2022-10-02T20:23:17.630Z,98983.63
2022-10-02T20:26:12.338Z,98987.09
2022-10-02T20:29:12.687Z,98991.38
2022-10-02T20:32:17.143Z,98989.91
2022-10-02T20:35:29.475Z,98992.54
2022-10-02T20:39:00.366Z,98997.25
2022-10-02T20:42:14.212Z,98999.54
2022-10-02T20:45:02.905Z,99002.16
2022-10-02T20:48:11.744Z,99003.94
2022-10-02T20:51:13.122Z,99006.27
2022-10-02T20:54:50.177Z,99002.81
2022-10-02T20:58:20.975Z,99001.75
2022-10-02T21:01:20.447Z,99000.69
2022-10-02T21:05:05.268Z,98997.88
2022-10-02T21:08:10.479Z,98990.83
2022-10-02T21:11:59.367Z,98993.23
2022-10-02T21:14:55.754Z,98989.56
2022-10-02T21:19:00.188Z,98989.02
2022-10-02T21:22:52.711Z,98991.12
2022-10-02T21:26:46.161Z,98987.56
2022-10-02T21:30:19.014Z,98983.04
2022-10-02T21:33:37.393Z,98985.50
2022-10-02T21:36:47.263Z,98985.02
2022-10-02T21:40:09.455Z,98986.59
2022-10-02T21:43:40.315Z,98977.77
2022-10-02T21:47:28.477Z,98975.29
2022-10-02T21:50:59.518Z,98977.56
2022-10-02T21:54:34.398Z,98978.65
2022-10-02T21:57:31.508Z,98981.78
2022-10-02T22:00:28.197Z,98981.83
2022-10-02T22:03:49.213Z,98983.31
2022-10-02T22:06:56.951Z,98982.03
2022-10-02T22:10:14.181Z,98978.09
2022-10-02T22:13:20.314Z,98985.64
2022-10-02T22:16:17.433Z,98987.67
2022-10-02T22:19:42.364Z,98988.00
2022-10-02T22:23:03.867Z,98990.02
2022-10-02T22:26:58.040Z,98992.66
2022-10-02T22:29:51.863Z,98993.29
2022-10-02T22:33:16.433Z,98992.86
2022-10-02T22:36:32.231Z,98989.86
2022-10-02T22:39:31.789Z,98986.96
2022-10-02T22:42:46.478Z,98983.17
2022-10-02T22:46:27.654Z,98984.52
2022-10-02T22:49:37.930Z,98976.93
2022-10-02T22:52:33.875Z,98985.70
2022-10-02T22:55:36.849Z,98982.19
2022-10-02T22:58:47.948Z,98975.91
2022-10-02T23:02:44.132Z,98978.48
2022-10-02T23:05:57.502Z,98976.41
2022-10-02T23:09:03.887Z,98974.00
2022-10-02T23:12:24.294Z,98973.33
2022-10-02T23:16:00.600Z,98975.52
2022-10-02T23:19:13.179Z,98971.63
2022-10-02T23:22:08.480Z,98972.70
2022-10-02T23:25:19.337Z,98974.00
2022-10-02T23:28:18.765Z,98972.48
2022-10-02T23:31:32.536Z,98978.79
2022-10-02T23:34:57.545Z,98975.45
2022-10-02T23:38:19.683Z,98977.57
2022-10-02T23:41:46.671Z,98974.61
2022-10-02T23:45:00.877Z,98970.05
2022-10-02T23:48:03.520Z,98965.21
2022-10-02T23:51:06.999Z,98969.90
2022-10-02T23:54:36.130Z,98968.40
2022-10-02T23:57:39.498Z,98975.30
